sensor_id;sensor_type;location;lat;lon;timestamp;pressure;altitude;pressure_sealevel;temperature;humidity
46534;BME280;32260;52.008;4.752;2023-07-09T00:00:51;101755.06;;;25.50;53.06
46534;BME280;32260;52.008;4.752;2023-07-09T00:03:18;101754.41;;;25.46;53.15
46534;BME280;32260;52.008;4.752;2023-07-09T00:05:48;101758.06;;;25.45;53.34
46534;BME280;32260;52.008;4.752;2023-07-09T00:08:27;101761.75;;;25.44;54.08
46534;BME280;32260;52.008;4.752;2023-07-09T00:10:55;101760.44;;;25.37;53.72
46534;BME280;32260;52.008;4.752;2023-07-09T00:13:23;101766.91;;;25.34;54.58
46534;BME280;32260;52.008;4.752;2023-07-09T00:15:50;101768.97;;;25.31;54.20
46534;BME280;32260;52.008;4.752;2023-07-09T00:18:18;101768.97;;;25.31;54.19
46534;BME280;32260;52.008;4.752;2023-07-09T00:20:47;101779.91;;;25.29;54.13
46534;BME280;32260;52.008;4.752;2023-07-09T00:23:14;101779.06;;;25.29;54.13
46534;BME280;32260;52.008;4.752;2023-07-09T00:25:43;101789.91;;;25.29;54.17
46534;BME280;32260;52.008;4.752;2023-07-09T00:28:18;101780.59;;;25.33;53.80
46534;BME280;32260;52.008;4.752;2023-07-09T00:30:48;101783.53;;;25.30;54.29
46534;BME280;32260;52.008;4.752;2023-07-09T00:33:16;101780.81;;;25.30;53.78
46534;BME280;32260;52.008;4.752;2023-07-09T00:35:46;101793.47;;;25.29;53.88
46534;BME280;32260;52.008;4.752;2023-07-09T00:38:17;101790.88;;;25.28;54.03
46534;BME280;32260;52.008;4.752;2023-07-09T00:41:12;101787.94;;;25.31;53.84
46534;BME280;32260;52.008;4.752;2023-07-09T00:43:49;101778.59;;;25.22;54.34
46534;BME280;32260;52.008;4.752;2023-07-09T00:48:59;101787.25;;;25.14;54.41
46534;BME280;32260;52.008;4.752;2023-07-09T00:51:26;101786.84;;;25.20;54.89
46534;BME280;32260;52.008;4.752;2023-07-09T00:53:58;101780.47;;;25.07;54.60
46534;BME280;32260;52.008;4.752;2023-07-09T00:56:31;101785.16;;;25.05;54.88
46534;BME280;32260;52.008;4.752;2023-07-09T00:59:02;101786.31;;;25.01;55.20
46534;BME280;32260;52.008;4.752;2023-07-09T01:01:38;101795.63;;;24.97;55.07
46534;BME280;32260;52.008;4.752;2023-07-09T01:04:09;101797.78;;;24.92;55.92
46534;BME280;32260;52.008;4.752;2023-07-09T01:06:41;101793.16;;;24.79;56.38
46534;BME280;32260;52.008;4.752;2023-07-09T01:09:11;101787.28;;;24.73;56.36
46534;BME280;32260;52.008;4.752;2023-07-09T01:11:38;101787.97;;;24.76;56.34
46534;BME280;32260;52.008;4.752;2023-07-09T01:14:08;101784.34;;;24.76;56.43
46534;BME280;32260;52.008;4.752;2023-07-09T01:16:39;101790.75;;;24.75;56.18
46534;BME280;32260;52.008;4.752;2023-07-09T01:19:12;101783.50;;;24.75;56.10
46534;BME280;32260;52.008;4.752;2023-07-09T01:21:42;101784.75;;;24.69;57.50
46534;BME280;32260;52.008;4.752;2023-07-09T01:24:46;101790.06;;;24.71;56.81
46534;BME280;32260;52.008;4.752;2023-07-09T01:27:04;101791.34;;;24.65;57.04
46534;BME280;32260;52.008;4.752;2023-07-09T01:29:34;101792.28;;;24.64;56.89
46534;BME280;32260;52.008;4.752;2023-07-09T01:32:01;101793.34;;;24.62;57.21
46534;BME280;32260;52.008;4.752;2023-07-09T01:34:29;101797.13;;;24.59;57.04
46534;BME280;32260;52.008;4.752;2023-07-09T01:36:56;101806.22;;;24.58;56.96
46534;BME280;32260;52.008;4.752;2023-07-09T01:39:23;101802.56;;;24.59;56.54
46534;BME280;32260;52.008;4.752;2023-07-09T01:41:49;101802.44;;;24.61;56.93
46534;BME280;32260;52.008;4.752;2023-07-09T01:44:16;101798.00;;;24.60;56.96
46534;BME280;32260;52.008;4.752;2023-07-09T01:46:50;101801.69;;;24.59;56.81
46534;BME280;32260;52.008;4.752;2023-07-09T01:49:17;101798.22;;;24.57;56.85
46534;BME280;32260;52.008;4.752;2023-07-09T01:51:44;101797.44;;;24.54;56.72
46534;BME280;32260;52.008;4.752;2023-07-09T01:54:16;101797.53;;;24.53;56.73
46534;BME280;32260;52.008;4.752;2023-07-09T01:56:43;101794.94;;;24.51;56.79
46534;BME280;32260;52.008;4.752;2023-07-09T01:59:12;101802.28;;;24.49;57.08
46534;BME280;32260;52.008;4.752;2023-07-09T02:01:38;101800.53;;;24.48;57.34
46534;BME280;32260;52.008;4.752;2023-07-09T02:04:05;101799.84;;;24.45;56.80
46534;BME280;32260;52.008;4.752;2023-07-09T02:06:31;101807.22;;;24.43;56.76
46534;BME280;32260;52.008;4.752;2023-07-09T02:08:58;101799.16;;;24.41;56.71
46534;BME280;32260;52.008;4.752;2023-07-09T02:11:25;101799.16;;;24.41;56.90
46534;BME280;32260;52.008;4.752;2023-07-09T02:13:51;101801.13;;;24.39;57.33
46534;BME280;32260;52.008;4.752;2023-07-09T02:16:17;101805.75;;;24.37;57.71
46534;BME280;32260;52.008;4.752;2023-07-09T02:18:43;101801.41;;;24.34;57.50
46534;BME280;32260;52.008;4.752;2023-07-09T02:21:09;101798.81;;;24.33;58.03
46534;BME280;32260;52.008;4.752;2023-07-09T02:23:35;101807.09;;;24.30;57.96
46534;BME280;32260;52.008;4.752;2023-07-09T02:26:01;101796.50;;;24.27;58.83
46534;BME280;32260;52.008;4.752;2023-07-09T02:28:27;101800.16;;;24.26;58.51
46534;BME280;32260;52.008;4.752;2023-07-09T02:30:54;101793.97;;;24.23;57.68
46534;BME280;32260;52.008;4.752;2023-07-09T02:33:20;101798.50;;;24.23;58.48
46534;BME280;32260;52.008;4.752;2023-07-09T02:35:47;101798.63;;;24.21;58.66
46534;BME280;32260;52.008;4.752;2023-07-09T02:38:13;101801.41;;;24.20;58.42
46534;BME280;32260;52.008;4.752;2023-07-09T02:40:40;101792.53;;;24.18;58.15
46534;BME280;32260;52.008;4.752;2023-07-09T02:43:06;101799.75;;;24.17;58.82
46534;BME280;32260;52.008;4.752;2023-07-09T02:45:32;101799.84;;;24.16;58.92
46534;BME280;32260;52.008;4.752;2023-07-09T02:47:58;101791.06;;;24.12;58.56
46534;BME280;32260;52.008;4.752;2023-07-09T02:50:24;101797.81;;;24.05;58.90
46534;BME280;32260;52.008;4.752;2023-07-09T02:52:50;101796.38;;;23.99;59.27
46534;BME280;32260;52.008;4.752;2023-07-09T02:55:16;101791.06;;;23.98;59.06
46534;BME280;32260;52.008;4.752;2023-07-09T02:57:42;101799.34;;;23.95;59.40
46534;BME280;32260;52.008;4.752;2023-07-09T03:00:09;101798.59;;;23.93;58.69
46534;BME280;32260;52.008;4.752;2023-07-09T03:02:35;101796.84;;;23.92;59.20
46534;BME280;32260;52.008;4.752;2023-07-09T03:05:01;101796.03;;;23.89;59.54
46534;BME280;32260;52.008;4.752;2023-07-09T03:07:27;101797.00;;;23.88;59.51
46534;BME280;32260;52.008;4.752;2023-07-09T03:09:53;101785.41;;;23.86;59.80
46534;BME280;32260;52.008;4.752;2023-07-09T03:12:20;101787.31;;;23.84;59.91
46534;BME280;32260;52.008;4.752;2023-07-09T03:14:48;101793.53;;;23.86;60.15
46534;BME280;32260;52.008;4.752;2023-07-09T03:17:15;101797.38;;;23.82;60.01
46534;BME280;32260;52.008;4.752;2023-07-09T03:19:41;101798.31;;;23.81;60.49
46534;BME280;32260;52.008;4.752;2023-07-09T03:22:07;101800.16;;;23.81;60.30
46534;BME280;32260;52.008;4.752;2023-07-09T03:24:33;101806.63;;;23.78;60.16
46534;BME280;32260;52.008;4.752;2023-07-09T03:26:59;101810.31;;;23.77;60.73
46534;BME280;32260;52.008;4.752;2023-07-09T03:29:25;101810.41;;;23.75;60.58
46534;BME280;32260;52.008;4.752;2023-07-09T03:31:51;101811.97;;;23.80;59.85
46534;BME280;32260;52.008;4.752;2023-07-09T03:34:17;101808.66;;;23.74;60.30
46534;BME280;32260;52.008;4.752;2023-07-09T03:36:45;101813.22;;;23.74;60.50
46534;BME280;32260;52.008;4.752;2023-07-09T03:39:11;101819.59;;;23.73;60.78
46534;BME280;32260;52.008;4.752;2023-07-09T03:41:37;101818.78;;;23.71;60.81
46534;BME280;32260;52.008;4.752;2023-07-09T03:44:03;101819.75;;;23.70;60.73
46534;BME280;32260;52.008;4.752;2023-07-09T03:46:29;101824.31;;;23.69;60.51
46534;BME280;32260;52.008;4.752;2023-07-09T03:51:24;101829.72;;;23.69;60.77
46534;BME280;32260;52.008;4.752;2023-07-09T03:53:53;101820.72;;;23.69;61.15
46534;BME280;32260;52.008;4.752;2023-07-09T03:56:19;101830.56;;;23.70;61.14
46534;BME280;32260;52.008;4.752;2023-07-09T03:58:45;101839.47;;;23.72;60.63
46534;BME280;32260;52.008;4.752;2023-07-09T04:01:12;101835.81;;;23.73;60.63
46534;BME280;32260;52.008;4.752;2023-07-09T04:03:38;101832.06;;;23.75;60.63
46534;BME280;32260;52.008;4.752;2023-07-09T04:06:04;101830.13;;;23.78;60.37
46534;BME280;32260;52.008;4.752;2023-07-09T04:08:30;101827.22;;;23.81;60.27
46534;BME280;32260;52.008;4.752;2023-07-09T04:11:01;101826.06;;;23.85;60.14
46534;BME280;32260;52.008;4.752;2023-07-09T04:13:27;101809.84;;;23.85;60.31
46534;BME280;32260;52.008;4.752;2023-07-09T04:15:54;101821.44;;;23.87;60.32
46534;BME280;32260;52.008;4.752;2023-07-09T04:18:20;101812.38;;;23.88;60.16
46534;BME280;32260;52.008;4.752;2023-07-09T04:20:50;101808.44;;;23.94;60.06
46534;BME280;32260;52.008;4.752;2023-07-09T04:23:18;101807.69;;;23.92;60.58
46534;BME280;32260;52.008;4.752;2023-07-09T04:25:44;101809.56;;;23.89;60.26
46534;BME280;32260;52.008;4.752;2023-07-09T04:28:10;101813.22;;;23.88;60.75
46534;BME280;32260;52.008;4.752;2023-07-09T04:30:36;101815.69;;;23.93;60.39
46534;BME280;32260;52.008;4.752;2023-07-09T04:33:03;101815.50;;;23.96;60.50
46534;BME280;32260;52.008;4.752;2023-07-09T04:35:29;101821.78;;;23.97;60.33
46534;BME280;32260;52.008;4.752;2023-07-09T04:37:55;101811.13;;;23.94;60.40
46534;BME280;32260;52.008;4.752;2023-07-09T04:40:24;101811.13;;;23.94;60.99
46534;BME280;32260;52.008;4.752;2023-07-09T04:42:50;101813.09;;;23.92;61.48
46534;BME280;32260;52.008;4.752;2023-07-09T04:45:17;101817.56;;;23.91;61.68
46534;BME280;32260;52.008;4.752;2023-07-09T04:47:43;101815.84;;;23.90;61.34
46534;BME280;32260;52.008;4.752;2023-07-09T04:50:09;101816.72;;;23.90;61.81
46534;BME280;32260;52.008;4.752;2023-07-09T04:52:37;101820.25;;;23.93;61.03
46534;BME280;32260;52.008;4.752;2023-07-09T04:55:04;101812.88;;;23.95;61.19
46534;BME280;32260;52.008;4.752;2023-07-09T04:57:30;101838.03;;;23.97;61.94
46534;BME280;32260;52.008;4.752;2023-07-09T04:59:56;101830.66;;;23.99;61.23
46534;BME280;32260;52.008;4.752;2023-07-09T05:02:23;101832.25;;;24.03;61.06
46534;BME280;32260;52.008;4.752;2023-07-09T05:04:49;101831.97;;;24.08;60.91
46534;BME280;32260;52.008;4.752;2023-07-09T05:07:15;101827.13;;;24.13;60.81
46534;BME280;32260;52.008;4.752;2023-07-09T05:09:41;101820.44;;;24.18;60.71
46534;BME280;32260;52.008;4.752;2023-07-09T05:12:08;101825.50;;;24.25;60.56
46534;BME280;32260;52.008;4.752;2023-07-09T05:14:34;101826.06;;;24.30;60.36
46534;BME280;32260;52.008;4.752;2023-07-09T05:17:01;101817.56;;;24.36;59.99
46534;BME280;32260;52.008;4.752;2023-07-09T05:19:27;101818.91;;;24.43;60.54
46534;BME280;32260;52.008;4.752;2023-07-09T05:21:53;101823.94;;;24.49;60.13
46534;BME280;32260;52.008;4.752;2023-07-09T05:24:19;101819.00;;;24.56;59.93
46534;BME280;32260;52.008;4.752;2023-07-09T05:26:45;101817.50;;;24.66;59.90
46534;BME280;32260;52.008;4.752;2023-07-09T05:29:11;101822.41;;;24.74;59.81
46534;BME280;32260;52.008;4.752;2023-07-09T05:31:37;101825.09;;;24.89;59.22
46534;BME280;32260;52.008;4.752;2023-07-09T05:34:03;101830.69;;;25.00;59.18
46534;BME280;32260;52.008;4.752;2023-07-09T05:36:29;101830.97;;;25.10;58.87
46534;BME280;32260;52.008;4.752;2023-07-09T05:38:56;101833.91;;;25.19;59.09
46534;BME280;32260;52.008;4.752;2023-07-09T05:41:22;101842.41;;;25.28;59.02
46534;BME280;32260;52.008;4.752;2023-07-09T05:43:50;101842.00;;;25.34;58.71
46534;BME280;32260;52.008;4.752;2023-07-09T05:46:18;101819.69;;;25.43;58.20
46534;BME280;32260;52.008;4.752;2023-07-09T05:48:44;101817.34;;;25.51;57.65
46534;BME280;32260;52.008;4.752;2023-07-09T05:51:10;101819.22;;;25.64;57.77
46534;BME280;32260;52.008;4.752;2023-07-09T05:53:37;101823.03;;;25.74;57.93
46534;BME280;32260;52.008;4.752;2023-07-09T05:56:11;101823.94;;;25.88;57.57
46534;BME280;32260;52.008;4.752;2023-07-09T05:58:38;101837.38;;;25.89;58.28
46534;BME280;32260;52.008;4.752;2023-07-09T06:01:04;101837.84;;;25.96;58.23
46534;BME280;32260;52.008;4.752;2023-07-09T06:03:30;101841.09;;;26.01;57.64
46534;BME280;32260;52.008;4.752;2023-07-09T06:05:58;101840.47;;;26.10;57.78
46534;BME280;32260;52.008;4.752;2023-07-09T06:08:26;101843.00;;;26.13;57.39
46534;BME280;32260;52.008;4.752;2023-07-09T06:10:54;101841.78;;;26.18;57.84
46534;BME280;32260;52.008;4.752;2023-07-09T06:13:21;101846.25;;;26.19;57.59
46534;BME280;32260;52.008;4.752;2023-07-09T06:15:49;101853.75;;;26.28;57.77
46534;BME280;32260;52.008;4.752;2023-07-09T06:18:15;101844.19;;;26.35;57.25
46534;BME280;32260;52.008;4.752;2023-07-09T06:20:45;101850.91;;;26.42;57.34
46534;BME280;32260;52.008;4.752;2023-07-09T06:23:12;101851.34;;;26.49;57.23
46534;BME280;32260;52.008;4.752;2023-07-09T06:25:38;101853.53;;;26.57;57.15
46534;BME280;32260;52.008;4.752;2023-07-09T06:28:05;101859.25;;;26.65;56.88
46534;BME280;32260;52.008;4.752;2023-07-09T06:30:31;101857.75;;;26.74;56.69
46534;BME280;32260;52.008;4.752;2023-07-09T06:32:57;101855.47;;;26.80;56.68
46534;BME280;32260;52.008;4.752;2023-07-09T06:35:23;101857.19;;;26.82;56.14
46534;BME280;32260;52.008;4.752;2023-07-09T06:37:49;101859.44;;;26.88;56.16
46534;BME280;32260;52.008;4.752;2023-07-09T06:40:15;101850.75;;;26.95;56.21
46534;BME280;32260;52.008;4.752;2023-07-09T06:42:41;101861.28;;;27.00;56.00
46534;BME280;32260;52.008;4.752;2023-07-09T06:45:08;101858.09;;;27.06;55.92
46534;BME280;32260;52.008;4.752;2023-07-09T06:47:34;101864.69;;;27.15;55.95
46534;BME280;32260;52.008;4.752;2023-07-09T06:50:00;101866.88;;;27.23;55.49
46534;BME280;32260;52.008;4.752;2023-07-09T06:52:26;101868.03;;;27.32;55.46
46534;BME280;32260;52.008;4.752;2023-07-09T06:54:52;101865.72;;;27.38;55.35
46534;BME280;32260;52.008;4.752;2023-07-09T06:57:18;101865.28;;;27.44;55.30
46534;BME280;32260;52.008;4.752;2023-07-09T06:59:44;101867.41;;;27.52;55.29
46534;BME280;32260;52.008;4.752;2023-07-09T07:02:10;101874.34;;;27.56;54.83
46534;BME280;32260;52.008;4.752;2023-07-09T07:04:37;101878.41;;;27.51;54.70
46534;BME280;32260;52.008;4.752;2023-07-09T07:07:03;101873.50;;;27.56;54.88
46534;BME280;32260;52.008;4.752;2023-07-09T07:09:29;101886.13;;;27.57;55.16
46534;BME280;32260;52.008;4.752;2023-07-09T07:11:55;101881.31;;;27.60;55.16
46534;BME280;32260;52.008;4.752;2023-07-09T07:14:22;101888.03;;;27.68;54.78
46534;BME280;32260;52.008;4.752;2023-07-09T07:16:48;101889.75;;;27.69;55.05
46534;BME280;32260;52.008;4.752;2023-07-09T07:19:14;101887.16;;;27.67;54.98
46534;BME280;32260;52.008;4.752;2023-07-09T07:21:40;101880.72;;;27.68;54.92
46534;BME280;32260;52.008;4.752;2023-07-09T07:24:07;101882.72;;;27.77;54.63
46534;BME280;32260;52.008;4.752;2023-07-09T07:26:33;101873.44;;;27.80;53.59
46534;BME280;32260;52.008;4.752;2023-07-09T07:28:59;101876.59;;;27.87;51.94
46534;BME280;32260;52.008;4.752;2023-07-09T07:31:25;101869.41;;;27.86;50.79
46534;BME280;32260;52.008;4.752;2023-07-09T07:33:51;101882.97;;;27.74;50.85
46534;BME280;32260;52.008;4.752;2023-07-09T07:36:18;101872.31;;;27.71;49.05
46534;BME280;32260;52.008;4.752;2023-07-09T07:38:44;101869.19;;;27.65;49.23
46534;BME280;32260;52.008;4.752;2023-07-09T07:41:10;101870.81;;;27.67;50.23
46534;BME280;32260;52.008;4.752;2023-07-09T07:43:36;101867.06;;;27.57;48.87
46534;BME280;32260;52.008;4.752;2023-07-09T07:46:03;101869.16;;;27.53;49.40
46534;BME280;32260;52.008;4.752;2023-07-09T07:48:29;101863.72;;;27.53;49.06
46534;BME280;32260;52.008;4.752;2023-07-09T07:51:03;101856.41;;;27.54;48.41
46534;BME280;32260;52.008;4.752;2023-07-09T07:53:30;101860.66;;;27.58;49.60
46534;BME280;32260;52.008;4.752;2023-07-09T07:55:58;101855.41;;;27.55;49.80
46534;BME280;32260;52.008;4.752;2023-07-09T07:58:24;101862.34;;;27.59;50.07
46534;BME280;32260;52.008;4.752;2023-07-09T08:00:55;101862.13;;;27.62;49.21
46534;BME280;32260;52.008;4.752;2023-07-09T08:03:22;101862.03;;;27.75;49.00
46534;BME280;32260;52.008;4.752;2023-07-09T08:05:50;101855.25;;;27.69;49.10
46534;BME280;32260;52.008;4.752;2023-07-09T08:08:18;101853.50;;;27.68;48.89
46534;BME280;32260;52.008;4.752;2023-07-09T08:10:44;101852.91;;;27.76;49.10
46534;BME280;32260;52.008;4.752;2023-07-09T08:13:10;101848.22;;;27.78;48.16
46534;BME280;32260;52.008;4.752;2023-07-09T08:15:36;101848.88;;;27.93;48.68
46534;BME280;32260;52.008;4.752;2023-07-09T08:18:02;101843.56;;;28.03;48.83
46534;BME280;32260;52.008;4.752;2023-07-09T08:20:28;101843.97;;;28.09;48.31
46534;BME280;32260;52.008;4.752;2023-07-09T08:22:54;101842.25;;;28.20;48.53
46534;BME280;32260;52.008;4.752;2023-07-09T08:25:21;101844.25;;;28.29;48.99
46534;BME280;32260;52.008;4.752;2023-07-09T08:27:47;101838.94;;;28.39;49.01
46534;BME280;32260;52.008;4.752;2023-07-09T08:30:13;101843.41;;;28.51;48.79
46534;BME280;32260;52.008;4.752;2023-07-09T08:32:39;101843.50;;;28.61;48.44
46534;BME280;32260;52.008;4.752;2023-07-09T08:35:06;101845.53;;;28.70;46.86
46534;BME280;32260;52.008;4.752;2023-07-09T08:37:32;101846.75;;;28.89;47.70
46534;BME280;32260;52.008;4.752;2023-07-09T08:39:58;101849.69;;;28.97;47.53
46534;BME280;32260;52.008;4.752;2023-07-09T08:42:32;101840.91;;;29.05;47.33
46534;BME280;32260;52.008;4.752;2023-07-09T08:48:04;101850.50;;;29.20;47.25
46534;BME280;32260;52.008;4.752;2023-07-09T08:50:38;101846.66;;;29.23;46.85
46534;BME280;32260;52.008;4.752;2023-07-09T08:53:05;101843.44;;;29.29;47.50
46534;BME280;32260;52.008;4.752;2023-07-09T08:55:35;101844.19;;;29.31;47.34
46534;BME280;32260;52.008;4.752;2023-07-09T08:58:17;101842.41;;;29.42;47.08
46534;BME280;32260;52.008;4.752;2023-07-09T09:00:54;101838.31;;;29.47;46.58
46534;BME280;32260;52.008;4.752;2023-07-09T09:03:34;101846.31;;;29.60;46.74
46534;BME280;32260;52.008;4.752;2023-07-09T09:06:11;101849.50;;;29.65;45.93
46534;BME280;32260;52.008;4.752;2023-07-09T09:14:30;101843.41;;;30.15;45.84
46534;BME280;32260;52.008;4.752;2023-07-09T09:16:59;101848.19;;;30.23;46.02
46534;BME280;32260;52.008;4.752;2023-07-09T09:22:12;101850.09;;;30.32;45.26
46534;BME280;32260;52.008;4.752;2023-07-09T09:27:30;101862.34;;;30.07;45.70
46534;BME280;32260;52.008;4.752;2023-07-09T09:29:57;101856.06;;;29.95;45.31
46534;BME280;32260;52.008;4.752;2023-07-09T09:32:28;101861.00;;;30.01;45.71
46534;BME280;32260;52.008;4.752;2023-07-09T09:34:55;101862.75;;;30.02;46.02
46534;BME280;32260;52.008;4.752;2023-07-09T09:37:27;101860.75;;;30.05;45.35
46534;BME280;32260;52.008;4.752;2023-07-09T09:39:54;101863.41;;;30.16;44.94
46534;BME280;32260;52.008;4.752;2023-07-09T09:42:22;101851.84;;;30.33;45.45
46534;BME280;32260;52.008;4.752;2023-07-09T09:44:49;101855.78;;;30.41;45.22
46534;BME280;32260;52.008;4.752;2023-07-09T09:47:15;101852.38;;;30.48;44.33
46534;BME280;32260;52.008;4.752;2023-07-09T09:49:43;101840.59;;;30.58;44.79
46534;BME280;32260;52.008;4.752;2023-07-09T09:52:13;101845.25;;;30.67;44.25
46534;BME280;32260;52.008;4.752;2023-07-09T09:54:46;101840.09;;;30.74;44.08
46534;BME280;32260;52.008;4.752;2023-07-09T09:57:17;101841.28;;;30.91;44.34
46534;BME280;32260;52.008;4.752;2023-07-09T09:59:45;101844.75;;;31.03;43.81
46534;BME280;32260;52.008;4.752;2023-07-09T10:02:17;101842.25;;;31.21;44.37
46534;BME280;32260;52.008;4.752;2023-07-09T10:04:44;101839.06;;;31.25;43.41
46534;BME280;32260;52.008;4.752;2023-07-09T10:09:56;101824.94;;;31.20;43.24
46534;BME280;32260;52.008;4.752;2023-07-09T10:12:49;101823.09;;;31.21;43.35
46534;BME280;32260;52.008;4.752;2023-07-09T10:15:41;101830.13;;;31.23;43.64
46534;BME280;32260;52.008;4.752;2023-07-09T10:26:31;101853.19;;;31.40;43.53
46534;BME280;32260;52.008;4.752;2023-07-09T10:34:32;101854.38;;;31.67;42.77
46534;BME280;32260;52.008;4.752;2023-07-09T10:37:23;101839.78;;;31.76;41.89
46534;BME280;32260;52.008;4.752;2023-07-09T10:39:57;101839.94;;;31.75;42.02
46534;BME280;32260;52.008;4.752;2023-07-09T10:42:33;101840.25;;;31.82;42.93
46534;BME280;32260;52.008;4.752;2023-07-09T10:45:12;101842.06;;;32.01;42.77
46534;BME280;32260;52.008;4.752;2023-07-09T10:47:44;101843.06;;;32.19;42.64
46534;BME280;32260;52.008;4.752;2023-07-09T10:50:33;101839.34;;;32.48;42.03
46534;BME280;32260;52.008;4.752;2023-07-09T10:53:12;101850.13;;;32.59;41.61
46534;BME280;32260;52.008;4.752;2023-07-09T10:55:50;101860.59;;;32.74;41.42
46534;BME280;32260;52.008;4.752;2023-07-09T10:58:56;101869.28;;;32.79;41.75
46534;BME280;32260;52.008;4.752;2023-07-09T11:01:13;101868.25;;;32.80;41.71
46534;BME280;32260;52.008;4.752;2023-07-09T11:03:52;101871.09;;;32.88;41.22
46534;BME280;32260;52.008;4.752;2023-07-09T11:06:32;101871.41;;;32.85;41.25
46534;BME280;32260;52.008;4.752;2023-07-09T11:09:00;101871.09;;;32.88;41.78
46534;BME280;32260;52.008;4.752;2023-07-09T11:11:35;101861.63;;;33.01;40.59
46534;BME280;32260;52.008;4.752;2023-07-09T11:14:13;101864.25;;;33.20;41.72
46534;BME280;32260;52.008;4.752;2023-07-09T11:16:44;101859.81;;;33.37;41.21
46534;BME280;32260;52.008;4.752;2023-07-09T11:19:17;101859.97;;;33.54;40.99
46534;BME280;32260;52.008;4.752;2023-07-09T11:22:20;101860.19;;;33.61;41.04
46534;BME280;32260;52.008;4.752;2023-07-09T11:24:44;101855.78;;;33.68;40.78
46534;BME280;32260;52.008;4.752;2023-07-09T11:27:18;101863.41;;;33.74;40.72
46534;BME280;32260;52.008;4.752;2023-07-09T11:29:47;101874.63;;;33.63;40.68
46534;BME280;32260;52.008;4.752;2023-07-09T11:32:22;101873.88;;;33.52;38.85
46534;BME280;32260;52.008;4.752;2023-07-09T11:34:49;101870.03;;;33.45;40.13
46534;BME280;32260;52.008;4.752;2023-07-09T11:37:16;101877.09;;;33.48;40.87
46534;BME280;32260;52.008;4.752;2023-07-09T11:45:10;101879.78;;;34.02;40.95
46534;BME280;32260;52.008;4.752;2023-07-09T11:47:45;101881.63;;;34.19;39.38
46534;BME280;32260;52.008;4.752;2023-07-09T11:50:30;101898.91;;;34.30;37.53
46534;BME280;32260;52.008;4.752;2023-07-09T11:53:20;101903.41;;;34.13;38.17
46534;BME280;32260;52.008;4.752;2023-07-09T11:55:50;101903.38;;;33.86;37.86
46534;BME280;32260;52.008;4.752;2023-07-09T11:58:18;101906.44;;;33.65;36.91
46534;BME280;32260;52.008;4.752;2023-07-09T12:00:51;101925.84;;;33.64;38.29
46534;BME280;32260;52.008;4.752;2023-07-09T12:03:24;101937.97;;;33.43;38.11
46534;BME280;32260;52.008;4.752;2023-07-09T12:05:53;101950.78;;;33.25;37.92
46534;BME280;32260;52.008;4.752;2023-07-09T12:08:26;101937.06;;;33.25;38.12
46534;BME280;32260;52.008;4.752;2023-07-09T12:10:54;101922.25;;;33.17;38.52
46534;BME280;32260;52.008;4.752;2023-07-09T12:13:23;101919.88;;;32.95;38.29
46534;BME280;32260;52.008;4.752;2023-07-09T12:15:49;101922.53;;;32.86;37.39
46534;BME280;32260;52.008;4.752;2023-07-09T12:18:16;101921.41;;;32.79;38.53
46534;BME280;32260;52.008;4.752;2023-07-09T12:20:50;101914.91;;;32.80;38.48
46534;BME280;32260;52.008;4.752;2023-07-09T12:23:29;101903.28;;;32.96;38.77
46534;BME280;32260;52.008;4.752;2023-07-09T12:25:59;101906.06;;;32.86;36.99
46534;BME280;32260;52.008;4.752;2023-07-09T12:28:27;101923.59;;;33.03;37.73
46534;BME280;32260;52.008;4.752;2023-07-09T12:30:54;101929.09;;;33.03;37.79
46534;BME280;32260;52.008;4.752;2023-07-09T12:33:24;101920.72;;;33.05;37.90
46534;BME280;32260;52.008;4.752;2023-07-09T12:35:56;101914.91;;;32.80;37.60
46534;BME280;32260;52.008;4.752;2023-07-09T12:38:33;101914.81;;;32.62;38.38
46534;BME280;32260;52.008;4.752;2023-07-09T12:41:07;101926.41;;;32.46;38.39
46534;BME280;32260;52.008;4.752;2023-07-09T12:43:42;101913.03;;;32.23;37.81
46534;BME280;32260;52.008;4.752;2023-07-09T12:46:08;101909.44;;;31.93;38.37
46534;BME280;32260;52.008;4.752;2023-07-09T12:48:34;101919.50;;;31.54;39.43
46534;BME280;32260;52.008;4.752;2023-07-09T12:51:01;101941.97;;;31.38;39.88
46534;BME280;32260;52.008;4.752;2023-07-09T12:53:32;101960.50;;;31.14;40.85
46534;BME280;32260;52.008;4.752;2023-07-09T12:56:01;101956.81;;;30.94;40.97
46534;BME280;32260;52.008;4.752;2023-07-09T12:58:31;101954.13;;;30.73;41.89
46534;BME280;32260;52.008;4.752;2023-07-09T13:00:59;101965.56;;;30.57;42.24
46534;BME280;32260;52.008;4.752;2023-07-09T13:03:28;101968.44;;;30.23;42.70
46534;BME280;32260;52.008;4.752;2023-07-09T13:05:58;101953.00;;;29.80;43.18
46534;BME280;32260;52.008;4.752;2023-07-09T13:08:27;101949.78;;;29.63;43.23
46534;BME280;32260;52.008;4.752;2023-07-09T13:10:54;101951.38;;;28.99;44.79
46534;BME280;32260;52.008;4.752;2023-07-09T13:13:23;101947.53;;;28.91;44.77
46534;BME280;32260;52.008;4.752;2023-07-09T13:15:59;101938.50;;;28.79;45.65
46534;BME280;32260;52.008;4.752;2023-07-09T13:18:27;101939.22;;;28.69;45.26
46534;BME280;32260;52.008;4.752;2023-07-09T13:20:57;101930.50;;;28.41;46.10
46534;BME280;32260;52.008;4.752;2023-07-09T13:23:27;101933.94;;;28.44;45.91
46534;BME280;32260;52.008;4.752;2023-07-09T13:25:54;101931.63;;;28.39;46.35
46534;BME280;32260;52.008;4.752;2023-07-09T13:28:26;101918.72;;;28.52;46.10
46534;BME280;32260;52.008;4.752;2023-07-09T13:30:55;101917.41;;;28.69;47.18
46534;BME280;32260;52.008;4.752;2023-07-09T13:33:22;101928.44;;;28.79;45.89
46534;BME280;32260;52.008;4.752;2023-07-09T13:35:49;101938.59;;;28.88;45.27
46534;BME280;32260;52.008;4.752;2023-07-09T13:38:21;101946.78;;;28.77;45.13
46534;BME280;32260;52.008;4.752;2023-07-09T13:40:50;101967.88;;;28.75;45.79